createdAt,value
2022-11-05T00:00:19.318Z,12.82
2022-11-05T00:02:45.781Z,9.32
2022-11-05T00:05:12.922Z,11.73
2022-11-05T00:07:47.758Z,14.13
2022-11-05T00:10:20.030Z,10.52
2022-11-05T00:12:46.795Z,11.50
2022-11-05T00:15:13.318Z,11.52
2022-11-05T00:17:40.765Z,11.95
2022-11-05T00:20:09.095Z,10.70
2022-11-05T00:22:35.555Z,9.63
2022-11-05T00:25:02.016Z,13.93
2022-11-05T00:27:28.378Z,12.05
2022-11-05T00:29:55.060Z,13.73
2022-11-05T00:32:21.608Z,11.48
2022-11-05T00:34:48.106Z,13.05
2022-11-05T00:37:14.544Z,11.88
2022-11-05T00:39:40.883Z,14.65
2022-11-05T00:42:07.533Z,11.85
2022-11-05T00:44:34.050Z,10.07
2022-11-05T00:47:00.395Z,9.90
2022-11-05T00:49:27.039Z,8.70
2022-11-05T00:51:53.587Z,9.93
2022-11-05T00:54:19.906Z,8.40
2022-11-05T00:56:46.516Z,8.98
2022-11-05T00:59:13.122Z,8.98
2022-11-05T01:01:39.495Z,8.20
2022-11-05T01:04:05.956Z,10.85
2022-11-05T01:06:32.417Z,10.38
2022-11-05T01:08:58.979Z,9.63
2022-11-05T01:11:25.584Z,12.30
2022-11-05T01:13:52.045Z,8.75
2022-11-05T01:16:18.589Z,9.23
2022-11-05T01:18:45.244Z,8.05
2022-11-05T01:21:13.669Z,10.75
2022-11-05T01:23:40.391Z,9.90
2022-11-05T01:26:06.971Z,7.53
2022-11-05T01:28:33.423Z,8.02
2022-11-05T01:30:59.872Z,8.20
2022-11-05T01:33:26.379Z,8.52
2022-11-05T01:35:52.799Z,5.60
2022-11-05T01:38:19.475Z,8.48
2022-11-05T01:40:46.307Z,8.85
2022-11-05T01:43:21.591Z,6.20
2022-11-05T01:45:51.140Z,6.53
2022-11-05T01:48:22.656Z,7.28
2022-11-05T01:50:55.362Z,6.75
2022-11-05T01:54:00.367Z,5.15
2022-11-05T01:56:33.344Z,4.85
2022-11-05T01:59:06.431Z,6.30
2022-11-05T02:01:33.629Z,8.20
2022-11-05T02:04:04.328Z,6.38
2022-11-05T02:06:34.746Z,9.00
2022-11-05T02:09:12.524Z,6.38
2022-11-05T02:11:38.941Z,6.90
2022-11-05T02:14:05.902Z,6.28
2022-11-05T02:16:46.893Z,6.82
2022-11-05T02:22:07.660Z,9.00
2022-11-05T02:24:39.755Z,10.98
2022-11-05T02:27:28.583Z,9.00
2022-11-05T02:30:22.546Z,6.47
2022-11-05T02:33:03.460Z,8.32
2022-11-05T02:38:31.380Z,6.35
2022-11-05T02:41:22.481Z,6.35
2022-11-05T02:44:19.867Z,7.85
2022-11-05T02:46:51.495Z,7.18
2022-11-05T02:49:30.507Z,7.47
2022-11-05T02:51:59.130Z,7.20
2022-11-05T02:54:32.185Z,6.10
2022-11-05T02:57:00.894Z,10.40
2022-11-05T02:59:27.320Z,6.07
2022-11-05T03:01:54.641Z,8.25
2022-11-05T03:04:23.883Z,7.95
2022-11-05T03:06:55.948Z,8.32
2022-11-05T03:09:50.317Z,5.72
2022-11-05T03:12:44.414Z,6.07
2022-11-05T03:15:16.639Z,6.22
2022-11-05T03:17:59.915Z,5.93
2022-11-05T03:20:35.962Z,6.35
2022-11-05T03:23:20.485Z,5.55
2022-11-05T03:25:54.189Z,7.35
2022-11-05T03:28:25.021Z,10.82
2022-11-05T03:30:55.035Z,6.10
2022-11-05T03:33:27.411Z,7.63
2022-11-05T03:36:02.480Z,5.85
2022-11-05T03:38:33.814Z,7.97
2022-11-05T03:41:04.856Z,6.97
2022-11-05T03:43:35.837Z,6.18
2022-11-05T03:46:08.079Z,6.57
2022-11-05T03:48:41.681Z,7.45
2022-11-05T03:51:32.775Z,6.03
2022-11-05T03:56:40.608Z,5.57
2022-11-05T03:59:10.234Z,5.75
2022-11-05T04:01:38.376Z,6.32
2022-11-05T04:04:08.970Z,6.68
2022-11-05T04:06:35.853Z,4.57
2022-11-05T04:09:02.492Z,8.02
2022-11-05T04:11:29.172Z,5.88
2022-11-05T04:13:55.512Z,5.25
2022-11-05T04:16:21.919Z,5.28
2022-11-05T04:18:48.526Z,4.60
2022-11-05T04:21:15.229Z,4.43
2022-11-05T04:23:41.573Z,4.32
2022-11-05T04:26:08.057Z,7.82
2022-11-05T04:28:34.567Z,7.22
2022-11-05T04:31:00.993Z,5.90
2022-11-05T04:33:27.402Z,6.43
2022-11-05T04:35:53.861Z,3.88
2022-11-05T04:38:20.497Z,5.60
2022-11-05T04:40:48.090Z,3.40
2022-11-05T04:43:17.580Z,3.42
2022-11-05T04:45:45.201Z,5.83
2022-11-05T04:48:12.088Z,4.47
2022-11-05T04:50:39.490Z,6.43
2022-11-05T04:53:05.899Z,5.20
2022-11-05T04:55:32.699Z,5.20
2022-11-05T04:57:59.118Z,4.55
2022-11-05T05:00:25.550Z,4.70
2022-11-05T05:02:51.939Z,4.50
2022-11-05T05:05:18.740Z,6.43
2022-11-05T05:07:45.324Z,3.38
2022-11-05T05:10:11.952Z,2.95
2022-11-05T05:12:38.493Z,4.32
2022-11-05T05:15:05.256Z,2.33
2022-11-05T05:17:31.777Z,3.55
2022-11-05T05:19:58.257Z,4.32
2022-11-05T05:22:24.645Z,2.80
2022-11-05T05:24:52.968Z,5.05
2022-11-05T05:27:19.540Z,3.58
2022-11-05T05:29:45.931Z,4.38
2022-11-05T05:32:12.363Z,5.82
2022-11-05T05:34:38.763Z,5.63
2022-11-05T05:37:05.181Z,3.90
2022-11-05T05:39:31.465Z,6.53
2022-11-05T05:41:58.048Z,3.60
2022-11-05T05:44:24.682Z,7.10
2022-11-05T05:46:53.392Z,3.78
2022-11-05T05:49:19.731Z,5.28
2022-11-05T05:51:48.821Z,8.52
2022-11-05T05:54:15.717Z,5.22
2022-11-05T05:56:45.654Z,3.50
2022-11-05T05:59:12.823Z,5.20
2022-11-05T06:01:39.570Z,3.42
2022-11-05T06:04:06.453Z,6.45
2022-11-05T06:06:33.215Z,5.10
2022-11-05T06:08:59.835Z,4.28
2022-11-05T06:11:26.323Z,4.30
2022-11-05T06:13:52.802Z,4.47
2022-11-05T06:16:19.235Z,6.55
2022-11-05T06:18:46.839Z,4.47
2022-11-05T06:21:15.515Z,5.22
2022-11-05T06:23:44.129Z,3.67
2022-11-05T06:26:13.420Z,6.10
2022-11-05T06:28:40.439Z,3.40
2022-11-05T06:31:06.855Z,3.92
2022-11-05T06:33:33.290Z,4.53
2022-11-05T06:36:01.437Z,4.22
2022-11-05T06:38:28.303Z,5.63
2022-11-05T06:40:55.086Z,4.25
2022-11-05T06:43:21.454Z,7.00
2022-11-05T06:45:48.020Z,4.45
2022-11-05T06:48:14.364Z,5.15
2022-11-05T06:50:44.228Z,6.22
2022-11-05T06:53:11.678Z,14.52
2022-11-05T06:55:38.373Z,9.13
2022-11-05T06:58:05.296Z,8.02
2022-11-05T07:00:32.153Z,4.55
2022-11-05T07:03:10.753Z,5.60
2022-11-05T07:05:40.092Z,10.98
2022-11-05T07:08:06.638Z,14.00
2022-11-05T07:10:33.146Z,9.13
2022-11-05T07:13:02.516Z,13.30
2022-11-05T07:15:33.157Z,15.32
2022-11-05T07:18:00.841Z,22.67
2022-11-05T07:20:32.431Z,9.13
2022-11-05T07:23:07.214Z,8.40
2022-11-05T07:25:34.286Z,7.75
2022-11-05T07:28:01.560Z,7.82
2022-11-05T07:30:28.625Z,7.00
2022-11-05T07:32:55.082Z,5.55
2022-11-05T07:35:22.061Z,7.28
2022-11-05T07:37:50.331Z,6.13
2022-11-05T07:40:18.740Z,4.78
2022-11-05T07:42:49.556Z,7.90
2022-11-05T07:47:47.548Z,11.40
2022-11-05T07:50:14.834Z,6.10
2022-11-05T07:52:41.373Z,5.43
2022-11-05T07:55:08.898Z,7.32
2022-11-05T07:57:49.441Z,9.90
2022-11-05T08:00:21.725Z,9.25
2022-11-05T08:03:08.173Z,12.85
2022-11-05T08:05:38.217Z,9.52
2022-11-05T08:08:06.096Z,19.05
2022-11-05T08:10:32.803Z,19.33
2022-11-05T08:12:59.337Z,19.55
2022-11-05T08:15:25.692Z,21.63
2022-11-05T08:18:02.251Z,18.90
2022-11-05T08:20:28.722Z,22.92
2022-11-05T08:22:55.874Z,24.05
2022-11-05T08:25:22.245Z,29.88
2022-11-05T08:27:55.924Z,29.90
2022-11-05T08:30:22.803Z,20.85
2022-11-05T08:32:49.275Z,30.17
2022-11-05T08:35:15.950Z,26.20
2022-11-05T08:37:42.453Z,26.75
2022-11-05T08:40:09.396Z,25.13
2022-11-05T08:42:36.105Z,28.63
2022-11-05T08:45:03.202Z,30.70
2022-11-05T08:47:29.811Z,25.35
2022-11-05T08:49:56.171Z,30.38
2022-11-05T08:52:22.827Z,30.10
2022-11-05T08:54:49.189Z,32.17
2022-11-05T08:57:15.690Z,30.00
2022-11-05T08:59:42.116Z,29.35
2022-11-05T09:02:11.134Z,28.33
2022-11-05T09:04:37.816Z,28.65
2022-11-05T09:07:04.310Z,32.35
2022-11-05T09:09:30.937Z,28.85
2022-11-05T09:12:11.716Z,25.80
2022-11-05T09:14:38.536Z,24.70
2022-11-05T09:17:04.963Z,19.90
2022-11-05T09:19:31.417Z,18.65
2022-11-05T09:21:58.295Z,18.23
2022-11-05T09:24:24.749Z,16.65
2022-11-05T09:26:51.308Z,14.77
2022-11-05T09:29:17.714Z,13.82
2022-11-05T09:31:44.027Z,18.25
2022-11-05T09:34:10.499Z,12.60
2022-11-05T09:36:36.824Z,17.13
2022-11-05T09:39:03.240Z,11.02
2022-11-05T09:41:35.991Z,8.80
2022-11-05T09:44:09.965Z,12.75
2022-11-05T09:46:45.788Z,7.82
2022-11-05T09:49:49.892Z,8.00
2022-11-05T09:52:22.380Z,8.43
2022-11-05T09:54:49.387Z,7.07
2022-11-05T09:57:20.251Z,12.57
2022-11-05T10:02:24.399Z,7.10
2022-11-05T10:04:54.276Z,9.40
2022-11-05T10:07:25.242Z,10.90
2022-11-05T10:09:57.625Z,10.05
2022-11-05T10:12:52.543Z,8.77
2022-11-05T10:15:24.748Z,10.43
2022-11-05T10:17:57.793Z,8.07
2022-11-05T10:20:31.992Z,8.70
2022-11-05T10:23:22.341Z,9.38
2022-11-05T10:25:54.838Z,14.90
2022-11-05T10:28:24.705Z,10.02
2022-11-05T10:30:57.012Z,10.27
2022-11-05T10:33:34.303Z,13.55
2022-11-05T10:36:06.690Z,11.80
2022-11-05T10:38:34.239Z,13.38
2022-11-05T10:41:11.716Z,14.38
2022-11-05T10:43:48.081Z,12.88
2022-11-05T10:46:40.398Z,13.52
2022-11-05T10:49:25.547Z,14.75
2022-11-05T10:51:55.897Z,16.58
2022-11-05T10:54:29.833Z,17.35
2022-11-05T10:56:56.286Z,20.55
2022-11-05T10:59:28.324Z,17.38
2022-11-05T11:02:03.291Z,17.25
2022-11-05T11:04:36.471Z,18.23
2022-11-05T11:07:04.723Z,19.27
2022-11-05T11:09:33.439Z,15.50
2022-11-05T11:12:14.143Z,20.73
2022-11-05T11:14:40.634Z,16.35
2022-11-05T11:17:25.168Z,17.30
2022-11-05T11:19:51.509Z,17.30
2022-11-05T11:22:20.239Z,20.17
2022-11-05T11:24:51.997Z,19.58
2022-11-05T11:27:23.831Z,17.50
2022-11-05T11:29:57.762Z,20.38
2022-11-05T11:32:28.603Z,17.83
2022-11-05T11:37:26.478Z,17.90
2022-11-05T11:40:20.325Z,17.88
2022-11-05T11:42:53.587Z,19.83
2022-11-05T11:45:41.836Z,17.92
2022-11-05T11:48:17.346Z,17.55
2022-11-05T11:50:46.484Z,16.08
2022-11-05T11:53:22.155Z,19.17
2022-11-05T11:55:54.824Z,15.95
2022-11-05T11:58:23.529Z,17.35
2022-11-05T12:00:59.684Z,17.88
2022-11-05T12:03:42.605Z,15.35
2022-11-05T12:06:21.183Z,14.32
2022-11-05T12:09:11.183Z,14.43
2022-11-05T12:11:49.624Z,13.23
2022-11-05T12:14:34.596Z,13.23
2022-11-05T12:17:45.522Z,14.30
2022-11-05T12:20:18.095Z,12.50
2022-11-05T12:23:11.896Z,14.25
2022-11-05T12:26:07.691Z,15.90
2022-11-05T12:29:17.223Z,12.40
2022-11-05T12:32:04.487Z,11.75
2022-11-05T12:34:48.341Z,11.73
2022-11-05T12:37:37.735Z,13.80
2022-11-05T12:40:14.208Z,12.55
2022-11-05T12:43:00.956Z,11.00
2022-11-05T12:45:48.510Z,16.30
2022-11-05T12:48:37.371Z,13.15
2022-11-05T12:51:22.688Z,11.30
2022-11-05T12:54:26.578Z,9.23
2022-11-05T12:57:01.607Z,16.35
2022-11-05T12:59:36.989Z,12.18
2022-11-05T13:02:12.829Z,14.43
2022-11-05T13:04:55.102Z,15.73
2022-11-05T13:07:30.038Z,12.52
2022-11-05T13:10:06.000Z,11.45
2022-11-05T13:12:37.435Z,11.98
2022-11-05T13:15:15.236Z,11.30
2022-11-05T13:17:55.458Z,12.10
2022-11-05T13:20:26.355Z,13.88
2022-11-05T13:25:27.745Z,9.18
2022-11-05T13:28:21.299Z,9.95
2022-11-05T13:30:51.345Z,9.82
2022-11-05T13:33:30.673Z,9.52
2022-11-05T13:36:08.756Z,10.63
2022-11-05T13:38:35.481Z,9.82
2022-11-05T13:41:40.249Z,10.95
2022-11-05T13:44:15.858Z,12.75
2022-11-05T13:47:16.849Z,11.95
2022-11-05T13:49:55.164Z,13.07
2022-11-05T13:52:39.691Z,9.65
2022-11-05T13:55:27.325Z,8.82
2022-11-05T13:58:12.547Z,10.50
2022-11-05T14:00:55.108Z,8.60
2022-11-05T14:03:22.035Z,9.35
2022-11-05T14:05:57.772Z,11.57
2022-11-05T14:08:27.813Z,10.57
2022-11-05T14:11:05.207Z,13.88
2022-11-05T14:13:39.848Z,12.95
2022-11-05T14:16:06.343Z,10.05
2022-11-05T14:18:45.702Z,9.95
2022-11-05T14:21:27.333Z,9.38
2022-11-05T14:23:58.541Z,11.35
2022-11-05T14:26:30.719Z,13.02
2022-11-05T14:29:03.367Z,9.43
2022-11-05T14:32:09.200Z,8.60
2022-11-05T14:34:53.915Z,10.05
2022-11-05T14:37:36.919Z,13.75
2022-11-05T14:40:40.106Z,11.88
2022-11-05T14:43:14.948Z,9.88
2022-11-05T14:45:52.397Z,8.63
2022-11-05T14:48:38.253Z,10.25
2022-11-05T14:51:31.775Z,16.85
2022-11-05T14:54:03.064Z,11.90
2022-11-05T14:56:53.290Z,15.40
2022-11-05T14:59:25.223Z,11.65
2022-11-05T15:01:56.623Z,12.00
2022-11-05T15:04:28.510Z,9.63
2022-11-05T15:07:03.970Z,10.43
2022-11-05T15:09:40.471Z,10.88
2022-11-05T15:12:07.047Z,8.05
2022-11-05T15:14:46.675Z,9.27
2022-11-05T15:17:18.296Z,12.32
2022-11-05T15:19:47.092Z,14.65
2022-11-05T15:22:26.691Z,11.60
2022-11-05T15:24:53.183Z,9.77
2022-11-05T15:27:34.388Z,9.52
2022-11-05T15:30:19.015Z,15.93
2022-11-05T15:32:45.635Z,16.67
2022-11-05T15:35:28.452Z,12.55
2022-11-05T15:38:01.765Z,14.35
2022-11-05T15:40:32.444Z,16.00
2022-11-05T15:43:28.596Z,11.95
2022-11-05T15:46:07.213Z,10.82
2022-11-05T15:48:35.698Z,10.07
2022-11-05T15:51:02.285Z,7.93
2022-11-05T15:54:08.308Z,12.60
2022-11-05T15:56:40.201Z,12.88
2022-11-05T15:59:19.003Z,12.95
2022-11-05T16:01:49.992Z,7.50
2022-11-05T16:04:21.442Z,7.18
2022-11-05T16:06:50.882Z,12.90
2022-11-05T16:09:32.168Z,11.38
2022-11-05T16:12:20.311Z,8.98
2022-11-05T16:15:09.622Z,14.30
2022-11-05T16:17:45.000Z,12.50
2022-11-05T16:20:20.659Z,9.52
2022-11-05T16:22:49.652Z,9.65
2022-11-05T16:25:35.903Z,10.15
2022-11-05T16:28:03.000Z,15.10
2022-11-05T16:30:29.512Z,11.27
2022-11-05T16:33:04.174Z,10.05
2022-11-05T16:35:30.709Z,13.85
2022-11-05T16:37:57.107Z,10.73
2022-11-05T16:40:25.611Z,10.88
2022-11-05T16:42:53.859Z,15.00
2022-11-05T16:45:23.396Z,11.18
2022-11-05T16:47:52.063Z,11.88
2022-11-05T16:50:27.261Z,12.38
2022-11-05T16:52:53.698Z,12.25
2022-11-05T16:55:20.503Z,9.35
2022-11-05T16:57:50.983Z,11.63
2022-11-05T17:00:20.300Z,13.77
2022-11-05T17:02:47.497Z,12.10
2022-11-05T17:05:25.693Z,12.02
2022-11-05T17:07:52.719Z,13.82
2022-11-05T17:10:20.447Z,12.13
2022-11-05T17:12:47.098Z,15.05
2022-11-05T17:15:16.165Z,16.55
2022-11-05T17:17:42.943Z,16.85
2022-11-05T17:20:43.115Z,20.02
2022-11-05T17:23:14.674Z,23.97
2022-11-05T17:25:45.991Z,27.83
2022-11-05T17:28:13.536Z,19.67
2022-11-05T17:30:41.939Z,18.65
2022-11-05T17:33:10.220Z,20.02
2022-11-05T17:35:40.921Z,19.67
2022-11-05T17:38:08.014Z,15.52
2022-11-05T17:40:36.321Z,16.27
2022-11-05T17:43:04.808Z,16.58
2022-11-05T17:45:31.568Z,17.40
2022-11-05T17:47:57.873Z,15.82
2022-11-05T17:50:24.544Z,16.98
2022-11-05T17:52:51.079Z,13.55
2022-11-05T17:55:17.576Z,17.23
2022-11-05T17:57:50.279Z,20.13
2022-11-05T18:00:24.157Z,20.08
2022-11-05T18:02:53.110Z,24.98
2022-11-05T18:05:22.293Z,27.08
2022-11-05T18:07:49.770Z,24.23
2022-11-05T18:10:16.846Z,18.98
2022-11-05T18:12:44.295Z,18.35
2022-11-05T18:15:10.971Z,17.05
2022-11-05T18:17:37.976Z,17.30
2022-11-05T18:20:06.374Z,17.08
2022-11-05T18:22:32.837Z,19.52
2022-11-05T18:24:59.198Z,20.30
2022-11-05T18:27:25.801Z,21.35
2022-11-05T18:29:52.186Z,19.90
2022-11-05T18:32:18.526Z,18.30
2022-11-05T18:34:45.401Z,20.65
2022-11-05T18:37:11.822Z,20.83
2022-11-05T18:39:38.867Z,22.70
2022-11-05T18:42:05.412Z,18.40
2022-11-05T18:44:36.263Z,22.70
2022-11-05T18:47:06.364Z,19.05
2022-11-05T18:49:32.995Z,21.65
2022-11-05T18:51:59.632Z,18.17
2022-11-05T18:54:26.084Z,19.10
2022-11-05T18:56:53.977Z,17.30
2022-11-05T18:59:38.592Z,20.15
2022-11-05T19:02:07.823Z,18.85
2022-11-05T19:04:38.939Z,20.38
2022-11-05T19:09:36.636Z,20.65
2022-11-05T19:12:04.375Z,24.45
2022-11-05T19:14:31.406Z,18.23
2022-11-05T19:16:59.062Z,22.92
2022-11-05T19:19:25.850Z,33.05
2022-11-05T19:21:52.469Z,34.20
2022-11-05T19:24:18.877Z,56.95
2022-11-05T19:26:45.485Z,47.72
2022-11-05T19:29:11.940Z,49.33
2022-11-05T19:31:38.645Z,38.20
2022-11-05T19:34:05.324Z,42.13
2022-11-05T19:36:33.003Z,42.30
2022-11-05T19:39:01.981Z,42.15
2022-11-05T19:41:28.392Z,40.20
2022-11-05T19:43:55.476Z,34.17
2022-11-05T19:46:23.445Z,29.40
2022-11-05T19:48:50.814Z,31.10
2022-11-05T19:51:22.950Z,33.25
2022-11-05T19:53:50.349Z,35.22
2022-11-05T19:56:19.780Z,29.80
2022-11-05T19:58:46.240Z,26.48
2022-11-05T20:01:14.368Z,29.75
2022-11-05T20:03:41.512Z,29.17
2022-11-05T20:06:14.934Z,23.00
2022-11-05T20:08:59.890Z,23.15
2022-11-05T20:11:28.870Z,30.20
2022-11-05T20:13:55.364Z,24.95
2022-11-05T20:16:27.868Z,27.15
2022-11-05T20:18:54.693Z,28.02
2022-11-05T20:21:21.083Z,31.02
2022-11-05T20:23:47.638Z,31.92
2022-11-05T20:26:14.617Z,38.60
2022-11-05T20:28:42.131Z,44.92
2022-11-05T20:31:11.893Z,46.53
2022-11-05T20:33:39.011Z,56.58
2022-11-05T20:36:07.475Z,48.72
2022-11-05T20:38:34.920Z,55.65
2022-11-05T20:41:06.938Z,47.97
2022-11-05T20:43:33.722Z,43.83
2022-11-05T20:46:00.137Z,51.25
2022-11-05T20:48:26.499Z,45.22
2022-11-05T20:50:52.958Z,54.33
2022-11-05T20:53:19.489Z,51.65
2022-11-05T20:55:47.934Z,47.05
2022-11-05T20:58:16.569Z,46.13
2022-11-05T21:00:53.605Z,53.40
2022-11-05T21:03:20.927Z,47.50
2022-11-05T21:05:56.504Z,54.60
2022-11-05T21:08:23.138Z,47.88
2022-11-05T21:10:51.429Z,53.03
2022-11-05T21:13:19.693Z,57.00
2022-11-05T21:15:51.394Z,54.40
2022-11-05T21:18:20.005Z,51.58
2022-11-05T21:20:47.200Z,44.33
2022-11-05T21:23:14.816Z,42.40
2022-11-05T21:25:42.815Z,36.70
2022-11-05T21:28:11.008Z,45.95
2022-11-05T21:30:40.691Z,43.55
2022-11-05T21:33:07.993Z,42.72
2022-11-05T21:35:34.577Z,49.88
2022-11-05T21:38:00.976Z,46.55
2022-11-05T21:40:27.426Z,41.05
2022-11-05T21:42:54.001Z,46.13
2022-11-05T21:45:20.330Z,38.45
2022-11-05T21:47:47.132Z,37.03
2022-11-05T21:50:15.254Z,33.20
2022-11-05T21:52:44.718Z,40.78
2022-11-05T21:55:12.440Z,33.35
2022-11-05T21:57:39.751Z,36.35
2022-11-05T22:00:09.031Z,43.58
2022-11-05T22:02:35.741Z,37.50
2022-11-05T22:05:02.372Z,37.03
2022-11-05T22:07:32.823Z,40.42
2022-11-05T22:09:59.794Z,33.70
2022-11-05T22:12:26.844Z,31.60
2022-11-05T22:14:54.301Z,35.92
2022-11-05T22:17:21.535Z,35.33
2022-11-05T22:19:47.992Z,38.10
2022-11-05T22:22:14.916Z,40.83
2022-11-05T22:24:41.729Z,37.17
2022-11-05T22:27:12.452Z,40.80
2022-11-05T22:29:38.978Z,41.42
2022-11-05T22:32:05.935Z,41.42
2022-11-05T22:34:32.567Z,88.95
2022-11-05T22:36:59.290Z,43.92
2022-11-05T22:39:25.682Z,54.35
2022-11-05T22:41:56.879Z,54.05
2022-11-05T22:44:24.954Z,97.15
2022-11-05T22:46:51.876Z,49.67
2022-11-05T22:49:18.978Z,57.72
2022-11-05T22:51:45.702Z,69.88
2022-11-05T22:54:12.701Z,59.90
2022-11-05T22:56:41.459Z,96.90
2022-11-05T22:59:11.440Z,48.38
2022-11-05T23:01:38.707Z,57.47
2022-11-05T23:04:05.227Z,88.13
2022-11-05T23:06:32.967Z,96.75
2022-11-05T23:08:59.906Z,59.70
2022-11-05T23:11:26.483Z,50.60
2022-11-05T23:13:52.899Z,96.65
2022-11-05T23:16:19.474Z,74.55
2022-11-05T23:18:45.983Z,50.17
2022-11-05T23:21:12.333Z,52.85
2022-11-05T23:23:38.837Z,43.72
2022-11-05T23:26:05.247Z,38.03
2022-11-05T23:28:31.679Z,52.70
2022-11-05T23:30:58.750Z,46.60
2022-11-05T23:33:25.700Z,46.78
2022-11-05T23:35:52.133Z,47.63
2022-11-05T23:38:18.564Z,57.83
2022-11-05T23:40:45.213Z,47.33
2022-11-05T23:43:11.637Z,29.98
2022-11-05T23:45:39.863Z,32.08
2022-11-05T23:48:17.198Z,27.10
2022-11-05T23:50:56.574Z,27.40
2022-11-05T23:53:23.586Z,36.33
2022-11-05T23:55:50.388Z,32.33
2022-11-05T23:58:17.618Z,27.35
